Time;durP1;ratioP1;P1;durP2;ratioP2;P2;SDS_P1;SDS_P2;PMS_P1;PMS_P2;Temp;Humidity;BMP_temperature;BMP_pressure;BME280_temperature;BME280_humidity;BME280_pressure;Samples;Min_cycle;Max_cycle;Signal;HPM_P1;HPM_P2
2021/08/09 00:01:49;;;;;;;;;;;27.90;94.70;;;;;;5046828;28;19905;-43
2021/08/09 00:04:15;;;;;;;;;;;27.80;94.70;;;;;;5029252;28;19980;-44
2021/08/09 00:06:41;;;;;;;;;;;27.80;94.60;;;;;;5046871;28;19922;-43
2021/08/09 00:09:07;;;;;;;;;;;27.80;94.70;;;;;;5046688;28;19976;-46
2021/08/09 00:11:33;;;;;;;;;;;27.80;94.80;;;;;;5046784;28;19905;-42
2021/08/09 00:14:00;;;;;;;;;;;27.80;94.90;;;;;;5046739;28;19936;-45
2021/08/09 00:16:26;;;;;;;;;;;27.80;94.90;;;;;;5046473;28;19906;-44
2021/08/09 00:18:52;;;;;;;;;;;27.80;94.90;;;;;;5047153;28;20088;-49
2021/08/09 00:21:20;;;;;;;;;;;27.80;94.90;;;;;;5045635;28;20194;-47
2021/08/09 00:23:46;;;;;;;;;;;27.70;94.80;;;;;;5046772;28;19909;-44
2021/08/09 00:26:12;;;;;;;;;;;27.70;94.70;;;;;;5046415;28;19976;-49
2021/08/09 00:28:38;;;;;;;;;;;27.70;94.60;;;;;;5046687;28;19920;-50
2021/08/09 00:31:04;;;;;;;;;;;27.70;94.60;;;;;;5046250;28;19955;-47
2021/08/09 00:33:30;;;;;;;;;;;27.70;94.50;;;;;;5046341;28;19917;-42
2021/08/09 00:35:57;;;;;;;;;;;27.70;94.60;;;;;;5046200;28;19944;-46
2021/08/09 00:38:23;;;;;;;;;;;27.60;94.50;;;;;;5046068;28;20193;-48
2021/08/09 00:40:49;;;;;;;;;;;27.60;94.40;;;;;;5046291;28;19976;-42
2021/08/09 00:43:15;;;;;;;;;;;27.60;94.20;;;;;;5045958;28;19909;-42
2021/08/09 00:45:42;;;;;;;;;;;27.60;94.20;;;;;;5045935;28;19960;-47
2021/08/09 00:48:08;;;;;;;;;;;27.60;94.10;;;;;;5045560;28;20075;-47
2021/08/09 00:50:34;;;;;;;;;;;27.60;94.20;;;;;;5045099;28;19917;-48
2021/08/09 00:53:00;;;;;;;;;;;27.60;94.00;;;;;;5046184;28;19913;-43
2021/08/09 00:55:27;;;;;;;;;;;27.50;94.10;;;;;;5045762;28;19905;-45
2021/08/09 00:57:53;;;;;;;;;;;27.50;94.10;;;;;;5046116;28;20178;-49
2021/08/09 01:00:19;;;;;;;;;;;27.50;94.00;;;;;;5011669;28;19909;-46
2021/08/09 01:02:45;;;;;;;;;;;27.40;94.00;;;;;;5045421;28;19927;-47
2021/08/09 01:05:12;;;;;;;;;;;27.40;94.00;;;;;;5045392;28;19906;-45
2021/08/09 01:07:47;;;;;;;;;;;27.40;94.00;;;;;;5045793;28;19920;-41
2021/08/09 01:10:19;;;;;;;;;;;27.40;94.10;;;;;;5045314;28;19909;-48
2021/08/09 01:13:06;;;;;;;;;;;27.40;94.10;;;;;;5045876;28;19913;-47
2021/08/09 01:15:35;;;;;;;;;;;27.30;94.10;;;;;;5044898;28;20102;-45
2021/08/09 01:18:03;;;;;;;;;;;27.30;94.20;;;;;;5045284;28;19913;-44
2021/08/09 01:20:39;;;;;;;;;;;27.30;94.00;;;;;;5027761;28;19909;-41
2021/08/09 01:23:26;;;;;;;;;;;27.30;94.00;;;;;;5045063;28;19913;-43
2021/08/09 01:25:55;;;;;;;;;;;27.30;93.90;;;;;;5044852;28;20109;-47
2021/08/09 01:28:22;;;;;;;;;;;27.30;93.90;;;;;;5045315;28;19917;-45
2021/08/09 01:30:48;;;;;;;;;;;27.30;94.00;;;;;;5045111;28;20136;-44
2021/08/09 01:33:16;;;;;;;;;;;27.30;94.00;;;;;;5044933;28;19913;-45
2021/08/09 01:35:43;;;;;;;;;;;27.30;94.10;;;;;;5045315;28;19966;-47
2021/08/09 01:38:10;;;;;;;;;;;27.20;94.10;;;;;;5045396;28;19919;-51
2021/08/09 01:40:36;;;;;;;;;;;27.30;94.00;;;;;;5044701;28;20190;-45
2021/08/09 01:43:03;;;;;;;;;;;27.20;94.10;;;;;;5045226;28;19913;-45
2021/08/09 01:45:29;;;;;;;;;;;27.20;94.00;;;;;;5044790;28;20019;-43
2021/08/09 01:47:56;;;;;;;;;;;27.20;93.90;;;;;;5044454;28;19944;-49
2021/08/09 01:50:23;;;;;;;;;;;27.20;93.80;;;;;;5044517;28;19917;-46
2021/08/09 01:52:49;;;;;;;;;;;27.20;93.80;;;;;;5045140;28;19939;-45
2021/08/09 01:55:16;;;;;;;;;;;27.10;93.90;;;;;;5044557;28;20209;-50
2021/08/09 01:57:43;;;;;;;;;;;27.20;93.90;;;;;;5044887;28;19913;-47
2021/08/09 02:00:14;;;;;;;;;;;27.10;93.70;;;;;;5044645;28;19906;-42
2021/08/09 02:02:40;;;;;;;;;;;27.10;93.90;;;;;;5043469;28;19913;-50
2021/08/09 02:05:10;;;;;;;;;;;27.10;93.90;;;;;;5044581;28;19905;-48
2021/08/09 02:07:38;;;;;;;;;;;27.10;93.80;;;;;;5044520;28;19920;-48
2021/08/09 02:10:07;;;;;;;;;;;27.10;93.90;;;;;;5043887;28;19909;-49
2021/08/09 02:12:42;;;;;;;;;;;27.10;93.90;;;;;;5044714;28;19920;-48
2021/08/09 02:15:09;;;;;;;;;;;27.10;93.90;;;;;;5042811;28;19909;-51
2021/08/09 02:17:38;;;;;;;;;;;27.10;93.80;;;;;;5026068;28;19944;-45
2021/08/09 02:20:11;;;;;;;;;;;27.10;93.90;;;;;;5043938;28;19912;-45
2021/08/09 02:22:43;;;;;;;;;;;27.10;93.80;;;;;;5043230;28;19913;-49
2021/08/09 02:25:16;;;;;;;;;;;27.10;93.80;;;;;;5044067;28;20265;-48
2021/08/09 02:27:44;;;;;;;;;;;27.10;93.80;;;;;;5044182;28;20178;-47
2021/08/09 02:30:11;;;;;;;;;;;27.10;93.80;;;;;;5043733;28;19909;-52
2021/08/09 02:32:39;;;;;;;;;;;27.10;93.90;;;;;;5043795;28;19917;-45
2021/08/09 02:35:06;;;;;;;;;;;27.00;93.80;;;;;;5043914;28;19912;-42
2021/08/09 02:37:33;;;;;;;;;;;27.00;93.90;;;;;;5043908;28;20228;-44
2021/08/09 02:39:59;;;;;;;;;;;27.00;93.90;;;;;;5044065;28;19913;-41
2021/08/09 02:42:26;;;;;;;;;;;26.90;93.70;;;;;;5043709;28;20212;-44
2021/08/09 02:44:53;;;;;;;;;;;27.00;93.80;;;;;;5044062;28;19913;-47
2021/08/09 02:47:20;;;;;;;;;;;26.90;93.70;;;;;;5043254;28;19906;-56
2021/08/09 02:49:50;;;;;;;;;;;27.00;93.90;;;;;;5043855;28;19928;-47
2021/08/09 02:52:18;;;;;;;;;;;26.90;93.70;;;;;;5026791;28;19905;-53
2021/08/09 02:54:50;;;;;;;;;;;26.90;93.60;;;;;;5044537;28;19928;-45
2021/08/09 02:57:17;;;;;;;;;;;26.90;93.70;;;;;;5044883;28;20101;-44
2021/08/09 02:59:49;;;;;;;;;;;26.90;93.70;;;;;;5044988;28;19913;-42
2021/08/09 03:02:20;;;;;;;;;;;26.90;93.60;;;;;;5043778;28;19905;-43
2021/08/09 03:04:46;;;;;;;;;;;26.90;93.60;;;;;;5026485;28;19913;-44
2021/08/09 03:07:13;;;;;;;;;;;26.90;93.70;;;;;;5041266;28;19905;-46
2021/08/09 03:09:40;;;;;;;;;;;26.90;93.80;;;;;;5044092;28;19992;-46
2021/08/09 03:12:07;;;;;;;;;;;26.80;93.60;;;;;;5026354;28;19964;-47
2021/08/09 03:14:33;;;;;;;;;;;26.70;93.60;;;;;;5027977;28;19963;-43
2021/08/09 03:17:04;;;;;;;;;;;26.70;93.60;;;;;;5048164;28;19905;-46
2021/08/09 03:19:30;;;;;;;;;;;26.80;93.80;;;;;;5047958;28;20300;-46
2021/08/09 03:22:00;;;;;;;;;;;26.80;93.90;;;;;;5047534;28;19932;-47
2021/08/09 03:24:28;;;;;;;;;;;26.80;94.00;;;;;;5047442;28;19994;-42
2021/08/09 03:26:54;;;;;;;;;;;26.80;94.30;;;;;;5047652;28;19972;-47
2021/08/09 03:29:21;;;;;;;;;;;26.80;94.40;;;;;;5047567;28;19940;-45
2021/08/09 03:31:47;;;;;;;;;;;26.80;94.50;;;;;;5048361;28;19905;-43
2021/08/09 03:34:14;;;;;;;;;;;26.80;94.60;;;;;;5047569;28;19916;-50
2021/08/09 03:36:46;;;;;;;;;;;26.80;94.80;;;;;;5047897;28;19912;-43
2021/08/09 03:39:15;;;;;;;;;;;26.80;94.90;;;;;;5047419;28;20113;-44
2021/08/09 03:41:41;;;;;;;;;;;26.80;95.00;;;;;;5047164;28;19905;-46
2021/08/09 03:44:08;;;;;;;;;;;26.80;95.00;;;;;;5047299;28;19955;-42
2021/08/09 03:46:34;;;;;;;;;;;26.80;95.00;;;;;;5029725;28;20101;-45
2021/08/09 03:49:04;;;;;;;;;;;26.70;95.30;;;;;;5047171;28;19963;-45
2021/08/09 03:51:33;;;;;;;;;;;26.80;95.30;;;;;;5047338;28;19905;-46
2021/08/09 03:54:00;;;;;;;;;;;26.80;95.40;;;;;;5047660;28;19917;-42
2021/08/09 03:56:26;;;;;;;;;;;26.80;95.50;;;;;;5046597;28;20105;-45
2021/08/09 03:58:52;;;;;;;;;;;26.80;95.30;;;;;;5046781;28;19909;-44
2021/08/09 04:01:18;;;;;;;;;;;26.80;95.20;;;;;;5046709;28;19905;-49
2021/08/09 04:03:44;;;;;;;;;;;26.80;95.30;;;;;;5046748;28;20101;-44
2021/08/09 04:06:11;;;;;;;;;;;26.80;95.20;;;;;;5046278;28;19940;-47
2021/08/09 04:08:40;;;;;;;;;;;26.70;95.20;;;;;;5028828;28;19910;-50
2021/08/09 04:11:06;;;;;;;;;;;26.80;95.20;;;;;;5046223;28;19913;-46
2021/08/09 04:13:34;;;;;;;;;;;26.80;95.10;;;;;;5046526;28;19905;-49
2021/08/09 04:16:01;;;;;;;;;;;26.80;95.20;;;;;;5046719;28;19913;-46
2021/08/09 04:18:27;;;;;;;;;;;26.80;95.10;;;;;;5046736;28;19947;-44
2021/08/09 04:20:53;;;;;;;;;;;26.80;95.10;;;;;;5047141;28;19921;-49
2021/08/09 04:23:19;;;;;;;;;;;26.80;95.10;;;;;;5046569;28;19905;-51
2021/08/09 04:25:45;;;;;;;;;;;26.80;95.10;;;;;;5045887;28;19913;-48
2021/08/09 04:28:11;;;;;;;;;;;26.80;95.00;;;;;;5046440;28;19909;-48
2021/08/09 04:30:38;;;;;;;;;;;26.80;94.90;;;;;;5046137;28;20093;-46
2021/08/09 04:33:04;;;;;;;;;;;26.80;94.90;;;;;;5045948;28;19905;-50
2021/08/09 04:35:30;;;;;;;;;;;26.80;94.90;;;;;;5045988;28;20097;-51
2021/08/09 04:37:56;;;;;;;;;;;26.80;94.90;;;;;;5045677;28;19909;-51
2021/08/09 04:40:23;;;;;;;;;;;26.80;94.90;;;;;;5046167;28;19980;-51
2021/08/09 04:42:49;;;;;;;;;;;26.80;94.80;;;;;;5045851;28;19947;-52
2021/08/09 04:45:15;;;;;;;;;;;26.70;94.70;;;;;;5045952;28;19940;-49
2021/08/09 04:47:41;;;;;;;;;;;26.70;94.80;;;;;;5046189;28;19909;-57
2021/08/09 04:50:07;;;;;;;;;;;26.80;94.80;;;;;;5045917;28;19925;-47
2021/08/09 04:52:39;;;;;;;;;;;26.70;94.80;;;;;;5046094;28;19928;-45
2021/08/09 04:55:05;;;;;;;;;;;26.70;94.80;;;;;;5046272;28;19913;-48
2021/08/09 04:57:31;;;;;;;;;;;26.70;94.70;;;;;;5045717;28;19912;-48
2021/08/09 04:59:57;;;;;;;;;;;26.70;94.70;;;;;;5046167;28;19984;-51
2021/08/09 05:02:23;;;;;;;;;;;26.70;94.70;;;;;;5045862;28;19928;-46
2021/08/09 05:04:50;;;;;;;;;;;26.70;94.70;;;;;;5045883;28;19913;-45
2021/08/09 05:07:16;;;;;;;;;;;26.70;94.70;;;;;;5045765;28;20206;-46
2021/08/09 05:09:42;;;;;;;;;;;26.70;94.60;;;;;;5045720;28;20086;-46
2021/08/09 05:12:08;;;;;;;;;;;26.70;94.70;;;;;;5045520;28;19912;-53
2021/08/09 05:14:35;;;;;;;;;;;26.70;94.60;;;;;;5045948;28;19920;-44
2021/08/09 05:17:01;;;;;;;;;;;26.70;94.90;;;;;;5045526;28;19911;-48
2021/08/09 05:19:28;;;;;;;;;;;26.70;94.70;;;;;;5045493;28;19917;-47
2021/08/09 05:21:54;;;;;;;;;;;26.70;94.60;;;;;;5045600;28;19906;-47
2021/08/09 05:24:20;;;;;;;;;;;26.70;94.70;;;;;;5045495;28;19913;-44
2021/08/09 05:26:46;;;;;;;;;;;26.60;94.60;;;;;;5045262;28;20185;-55
2021/08/09 05:29:13;;;;;;;;;;;26.60;94.50;;;;;;5045248;28;19925;-48
2021/08/09 05:31:39;;;;;;;;;;;26.60;94.50;;;;;;5045639;28;20187;-53
2021/08/09 05:34:06;;;;;;;;;;;26.60;94.50;;;;;;5045280;28;19916;-50
2021/08/09 05:36:32;;;;;;;;;;;26.60;94.40;;;;;;5045282;28;20182;-47
2021/08/09 05:39:00;;;;;;;;;;;26.60;94.30;;;;;;5045023;28;19913;-47
2021/08/09 05:41:26;;;;;;;;;;;26.60;94.20;;;;;;5045088;28;19909;-44
2021/08/09 05:43:52;;;;;;;;;;;26.60;94.10;;;;;;5044955;28;19911;-50
2021/08/09 05:46:18;;;;;;;;;;;26.60;94.10;;;;;;5045009;28;19971;-45
2021/08/09 05:48:44;;;;;;;;;;;26.60;94.00;;;;;;5044659;28;20000;-44
2021/08/09 05:51:11;;;;;;;;;;;26.60;94.00;;;;;;5044764;28;20094;-47
2021/08/09 05:53:37;;;;;;;;;;;26.60;93.90;;;;;;5044887;28;19972;-45
2021/08/09 05:56:03;;;;;;;;;;;26.60;93.80;;;;;;5044844;28;19931;-51
2021/08/09 05:58:29;;;;;;;;;;;26.60;93.80;;;;;;5044677;28;19912;-46
2021/08/09 06:00:55;;;;;;;;;;;26.60;93.70;;;;;;5045130;28;19913;-46
2021/08/09 06:03:24;;;;;;;;;;;26.60;93.70;;;;;;5044699;28;19945;-45
2021/08/09 06:05:54;;;;;;;;;;;26.60;93.70;;;;;;5045040;28;19924;-47
2021/08/09 06:08:20;;;;;;;;;;;26.60;93.80;;;;;;5044557;28;19909;-52
2021/08/09 06:10:47;;;;;;;;;;;26.60;93.80;;;;;;5045043;28;19909;-47
2021/08/09 06:13:13;;;;;;;;;;;26.60;93.80;;;;;;5044423;28;19916;-51
2021/08/09 06:15:39;;;;;;;;;;;26.60;93.80;;;;;;5044954;28;20175;-44
2021/08/09 06:18:05;;;;;;;;;;;26.60;93.80;;;;;;5044418;28;19909;-51
2021/08/09 06:20:31;;;;;;;;;;;26.60;93.80;;;;;;5044796;28;19955;-47
2021/08/09 06:22:59;;;;;;;;;;;26.50;93.80;;;;;;5044506;28;20209;-52
2021/08/09 06:25:25;;;;;;;;;;;26.50;93.80;;;;;;5044228;28;19909;-44
2021/08/09 06:27:51;;;;;;;;;;;26.50;93.80;;;;;;5044306;28;19964;-51
2021/08/09 06:30:17;;;;;;;;;;;26.50;93.90;;;;;;5044601;28;19949;-44
2021/08/09 06:32:44;;;;;;;;;;;26.50;93.90;;;;;;5044364;28;19944;-44
2021/08/09 06:35:10;;;;;;;;;;;26.50;93.90;;;;;;5044458;28;19913;-46
2021/08/09 06:37:36;;;;;;;;;;;26.50;93.90;;;;;;5042891;28;19909;-45
2021/08/09 06:40:05;;;;;;;;;;;26.50;93.90;;;;;;5044418;28;19909;-44
2021/08/09 06:42:31;;;;;;;;;;;26.50;94.00;;;;;;5044167;28;20197;-47
2021/08/09 06:44:57;;;;;;;;;;;26.50;94.00;;;;;;5044496;28;19909;-54
2021/08/09 06:47:26;;;;;;;;;;;26.50;94.10;;;;;;5044005;28;19909;-50
2021/08/09 06:49:52;;;;;;;;;;;26.40;94.10;;;;;;5046217;28;20097;-47
2021/08/09 06:52:20;;;;;;;;;;;26.50;94.10;;;;;;5048073;28;20193;-47
2021/08/09 06:54:46;;;;;;;;;;;26.40;94.00;;;;;;5048432;28;19940;-47
2021/08/09 06:57:13;;;;;;;;;;;26.40;94.00;;;;;;5048132;28;19905;-48
2021/08/09 06:59:39;;;;;;;;;;;26.40;93.90;;;;;;5048170;28;19951;-50
2021/08/09 07:02:07;;;;;;;;;;;26.40;93.90;;;;;;5048099;28;20132;-56
2021/08/09 07:04:33;;;;;;;;;;;26.40;93.90;;;;;;5048226;28;19913;-49
2021/08/09 07:06:59;;;;;;;;;;;26.40;93.90;;;;;;5047858;28;19906;-53
2021/08/09 07:09:25;;;;;;;;;;;26.40;93.80;;;;;;5047770;28;19955;-51
2021/08/09 07:11:51;;;;;;;;;;;26.40;93.90;;;;;;5047635;28;19909;-51
2021/08/09 07:14:20;;;;;;;;;;;26.40;93.90;;;;;;5047802;28;19913;-50
2021/08/09 07:16:46;;;;;;;;;;;26.40;93.80;;;;;;5047693;28;19906;-57
2021/08/09 07:19:12;;;;;;;;;;;26.40;93.90;;;;;;5047720;28;20101;-51
2021/08/09 07:21:38;;;;;;;;;;;26.40;93.80;;;;;;5047497;28;19906;-52
2021/08/09 07:24:04;;;;;;;;;;;26.40;93.80;;;;;;5047632;28;19944;-50
2021/08/09 07:26:32;;;;;;;;;;;26.40;93.80;;;;;;5047727;28;20245;-46
2021/08/09 07:28:59;;;;;;;;;;;26.30;93.80;;;;;;5047311;28;19984;-52
2021/08/09 07:31:25;;;;;;;;;;;26.30;93.70;;;;;;5047406;28;19940;-50
2021/08/09 07:33:51;;;;;;;;;;;26.40;93.80;;;;;;5047541;28;19911;-48
2021/08/09 07:36:17;;;;;;;;;;;26.30;93.80;;;;;;5047238;28;19909;-46
2021/08/09 07:38:43;;;;;;;;;;;26.30;93.80;;;;;;5047280;28;19909;-45
2021/08/09 07:41:10;;;;;;;;;;;26.30;93.90;;;;;;5047323;28;20201;-47
2021/08/09 07:43:37;;;;;;;;;;;26.30;93.90;;;;;;5047035;28;19937;-46
2021/08/09 07:46:04;;;;;;;;;;;26.30;93.80;;;;;;5047422;28;19932;-52
2021/08/09 07:48:30;;;;;;;;;;;26.30;93.90;;;;;;5046877;28;19956;-52
2021/08/09 07:50:57;;;;;;;;;;;26.30;94.00;;;;;;5047542;28;19917;-48
2021/08/09 07:53:23;;;;;;;;;;;26.30;93.90;;;;;;5047205;28;19905;-47
2021/08/09 07:55:49;;;;;;;;;;;26.30;93.90;;;;;;5047551;28;19976;-50
2021/08/09 07:58:15;;;;;;;;;;;26.30;93.90;;;;;;5047052;28;19912;-47
2021/08/09 08:00:41;;;;;;;;;;;26.30;93.90;;;;;;5047201;28;19936;-44
2021/08/09 08:03:07;;;;;;;;;;;26.30;94.00;;;;;;5046820;28;20101;-50
2021/08/09 08:05:34;;;;;;;;;;;26.30;94.10;;;;;;5047376;28;20027;-53
2021/08/09 08:08:00;;;;;;;;;;;26.30;94.10;;;;;;5046664;28;19932;-50
2021/08/09 08:10:26;;;;;;;;;;;26.30;94.10;;;;;;5046551;28;20172;-45
2021/08/09 08:12:52;;;;;;;;;;;26.30;94.20;;;;;;5046646;28;20190;-46
2021/08/09 08:15:18;;;;;;;;;;;26.30;94.30;;;;;;5046882;28;19912;-51
2021/08/09 08:17:44;;;;;;;;;;;26.30;94.30;;;;;;5046678;28;19905;-44
2021/08/09 08:20:11;;;;;;;;;;;26.20;94.30;;;;;;5046829;28;19913;-48
2021/08/09 08:22:37;;;;;;;;;;;26.20;94.40;;;;;;5046287;28;19936;-44
2021/08/09 08:25:04;;;;;;;;;;;26.30;94.40;;;;;;5046758;28;20224;-46
2021/08/09 08:27:30;;;;;;;;;;;26.20;94.40;;;;;;5046335;28;19905;-47
2021/08/09 08:29:56;;;;;;;;;;;26.20;94.40;;;;;;5046249;28;19992;-55
2021/08/09 08:32:22;;;;;;;;;;;26.30;94.50;;;;;;5046546;28;19920;-45
2021/08/09 08:34:49;;;;;;;;;;;26.20;94.50;;;;;;5046484;28;20125;-48
2021/08/09 08:37:15;;;;;;;;;;;26.20;94.60;;;;;;5046148;28;19976;-48
2021/08/09 08:39:41;;;;;;;;;;;26.20;94.60;;;;;;5046220;28;19913;-48
2021/08/09 08:42:07;;;;;;;;;;;26.20;94.60;;;;;;5046474;28;20082;-54
2021/08/09 08:44:34;;;;;;;;;;;26.20;94.60;;;;;;5046397;28;20153;-46
2021/08/09 08:47:00;;;;;;;;;;;26.20;94.60;;;;;;5045940;28;19911;-54
2021/08/09 08:49:26;;;;;;;;;;;26.20;94.50;;;;;;5045857;28;19927;-53
2021/08/09 08:51:53;;;;;;;;;;;26.20;94.50;;;;;;5045861;28;19951;-52
2021/08/09 08:54:19;;;;;;;;;;;26.20;94.40;;;;;;5045828;28;19972;-52
2021/08/09 08:56:46;;;;;;;;;;;26.20;94.40;;;;;;5045821;28;20131;-47
2021/08/09 08:59:14;;;;;;;;;;;26.20;94.40;;;;;;5046026;28;19940;-50
2021/08/09 09:01:41;;;;;;;;;;;26.20;94.30;;;;;;5045885;28;19940;-48
2021/08/09 09:04:20;;;;;;;;;;;26.20;94.30;;;;;;5045690;28;19959;-45
2021/08/09 09:06:47;;;;;;;;;;;26.20;94.30;;;;;;5045586;28;20136;-46
2021/08/09 09:09:23;;;;;;;;;;;26.10;94.30;;;;;;5045791;28;19925;-53
2021/08/09 09:11:49;;;;;;;;;;;26.10;94.30;;;;;;5045005;28;19912;-53
2021/08/09 09:14:23;;;;;;;;;;;26.10;94.30;;;;;;5045434;28;20181;-44
2021/08/09 09:16:50;;;;;;;;;;;26.10;94.40;;;;;;5045484;28;19905;-47
2021/08/09 09:19:33;;;;;;;;;;;26.10;94.40;;;;;;5045778;28;19913;-46
2021/08/09 09:22:00;;;;;;;;;;;26.10;94.30;;;;;;5045303;28;20189;-44
2021/08/09 09:24:27;;;;;;;;;;;26.10;94.30;;;;;;5045554;28;19936;-56
2021/08/09 09:26:53;;;;;;;;;;;26.10;94.30;;;;;;5045084;28;19905;-52
2021/08/09 09:29:19;;;;;;;;;;;26.00;94.30;;;;;;5045342;28;19917;-54
2021/08/09 09:31:46;;;;;;;;;;;26.00;94.30;;;;;;5045202;28;19905;-45
2021/08/09 09:34:16;;;;;;;;;;;26.00;94.30;;;;;;5045047;28;19920;-46
2021/08/09 09:36:44;;;;;;;;;;;26.00;94.30;;;;;;5045363;28;19909;-46
2021/08/09 09:39:31;;;;;;;;;;;26.00;94.30;;;;;;5045180;28;19913;-55
2021/08/09 09:41:58;;;;;;;;;;;26.00;94.30;;;;;;5044813;28;19980;-57
2021/08/09 09:44:25;;;;;;;;;;;26.00;94.30;;;;;;5045204;28;20074;-52
2021/08/09 09:46:52;;;;;;;;;;;26.00;94.30;;;;;;5044804;28;19912;-53
2021/08/09 09:49:34;;;;;;;;;;;26.00;94.40;;;;;;5044808;28;19921;-52
2021/08/09 09:52:00;;;;;;;;;;;26.00;94.30;;;;;;5044748;28;19905;-50
2021/08/09 09:54:27;;;;;;;;;;;26.00;94.30;;;;;;5044920;28;20201;-55
2021/08/09 09:56:54;;;;;;;;;;;26.00;94.30;;;;;;5044721;28;19911;-53
2021/08/09 09:59:21;;;;;;;;;;;26.00;94.30;;;;;;5044936;28;20158;-52
2021/08/09 10:01:49;;;;;;;;;;;26.00;94.30;;;;;;5044490;28;20137;-56
2021/08/09 10:04:15;;;;;;;;;;;26.00;94.30;;;;;;5045060;28;19920;-51
2021/08/09 10:06:41;;;;;;;;;;;26.00;94.30;;;;;;5044649;28;19963;-52
2021/08/09 10:09:08;;;;;;;;;;;26.00;94.20;;;;;;5044457;28;20251;-49
2021/08/09 10:11:36;;;;;;;;;;;26.00;94.30;;;;;;5044478;28;20073;-45
2021/08/09 10:14:03;;;;;;;;;;;26.00;94.30;;;;;;5044619;28;20102;-51
2021/08/09 10:16:32;;;;;;;;;;;26.00;94.30;;;;;;5044372;28;19905;-48
2021/08/09 10:18:59;;;;;;;;;;;26.00;94.30;;;;;;5044454;28;19920;-50
2021/08/09 10:21:29;;;;;;;;;;;26.00;94.30;;;;;;5044476;28;19905;-52
2021/08/09 10:23:55;;;;;;;;;;;25.90;94.30;;;;;;5043546;28;19913;-46
2021/08/09 10:26:31;;;;;;;;;;;25.90;94.30;;;;;;5044264;28;19909;-46
2021/08/09 10:29:11;;;;;;;;;;;25.90;94.20;;;;;;5044124;28;19924;-52
2021/08/09 10:31:40;;;;;;;;;;;25.90;94.30;;;;;;5044303;28;19906;-50
2021/08/09 10:34:07;;;;;;;;;;;25.90;94.30;;;;;;5044357;28;19914;-50
2021/08/09 10:36:52;;;;;;;;;;;25.90;94.40;;;;;;5044437;28;19920;-50
2021/08/09 10:39:37;;;;;;;;;;;25.90;94.40;;;;;;5044271;28;20090;-49
2021/08/09 10:42:03;;;;;;;;;;;25.90;94.40;;;;;;5044372;28;19905;-50
2021/08/09 10:44:29;;;;;;;;;;;25.90;94.40;;;;;;5044090;28;19913;-47
2021/08/09 10:46:56;;;;;;;;;;;25.90;94.40;;;;;;5044117;28;20212;-54
2021/08/09 10:49:40;;;;;;;;;;;25.90;94.30;;;;;;5043891;28;19928;-48
2021/08/09 10:52:07;;;;;;;;;;;25.90;94.30;;;;;;5043991;28;19905;-49
2021/08/09 10:54:37;;;;;;;;;;;25.90;94.40;;;;;;5044274;28;19915;-55
2021/08/09 10:57:04;;;;;;;;;;;25.90;94.30;;;;;;5044265;28;19972;-52
2021/08/09 10:59:46;;;;;;;;;;;25.80;94.30;;;;;;5044210;28;19913;-45
2021/08/09 11:02:27;;;;;;;;;;;25.90;94.30;;;;;;5043932;28;19905;-44
2021/08/09 11:05:15;;;;;;;;;;;25.90;94.20;;;;;;5043860;28;19951;-46
2021/08/09 11:07:46;;;;;;;;;;;25.90;94.20;;;;;;5044109;28;19909;-50
2021/08/09 11:10:12;;;;;;;;;;;25.90;94.20;;;;;;5044177;28;19959;-49
2021/08/09 11:12:57;;;;;;;;;;;25.90;94.20;;;;;;5043857;28;19905;-49
2021/08/09 11:15:23;;;;;;;;;;;25.90;94.20;;;;;;5044129;28;19996;-57
2021/08/09 11:17:50;;;;;;;;;;;25.90;94.20;;;;;;5043896;28;20007;-48
2021/08/09 11:20:18;;;;;;;;;;;25.90;94.30;;;;;;5044123;28;19941;-50
2021/08/09 11:22:48;;;;;;;;;;;26.00;94.10;;;;;;5043668;28;19905;-48
2021/08/09 11:25:24;;;;;;;;;;;26.00;94.00;;;;;;5026106;28;19913;-50
2021/08/09 11:27:57;;;;;;;;;;;26.00;93.90;;;;;;5043703;28;19905;-47
2021/08/09 11:30:50;;;;;;;;;;;26.00;93.80;;;;;;5042847;28;19920;-45
2021/08/09 11:33:27;;;;;;;;;;;26.00;93.70;;;;;;5040685;28;19909;-55
2021/08/09 11:35:54;;;;;;;;;;;26.10;93.70;;;;;;5046320;28;19947;-45
2021/08/09 11:38:21;;;;;;;;;;;26.10;93.60;;;;;;5047323;28;19909;-46
2021/08/09 11:40:49;;;;;;;;;;;26.10;93.60;;;;;;5047315;28;20079;-53
2021/08/09 11:43:25;;;;;;;;;;;26.10;93.60;;;;;;5047509;28;19976;-49
2021/08/09 11:45:52;;;;;;;;;;;26.10;93.50;;;;;;5047659;28;20024;-50
2021/08/09 11:48:26;;;;;;;;;;;26.10;93.70;;;;;;5047257;28;19909;-52
2021/08/09 11:50:56;;;;;;;;;;;26.10;93.60;;;;;;5047688;28;20128;-51
2021/08/09 11:53:22;;;;;;;;;;;26.20;93.50;;;;;;5047074;28;19905;-49
2021/08/09 11:55:48;;;;;;;;;;;26.20;93.50;;;;;;5047720;28;19913;-49
2021/08/09 11:58:31;;;;;;;;;;;26.20;93.50;;;;;;5047036;28;20079;-50
2021/08/09 12:00:57;;;;;;;;;;;26.20;93.80;;;;;;5047586;28;20185;-50
2021/08/09 12:03:26;;;;;;;;;;;26.20;93.90;;;;;;5046912;28;19933;-48
2021/08/09 12:05:55;;;;;;;;;;;26.20;93.80;;;;;;5047215;28;19948;-47
2021/08/09 12:08:22;;;;;;;;;;;26.20;93.90;;;;;;5046789;28;19976;-53
2021/08/09 12:10:48;;;;;;;;;;;26.20;94.00;;;;;;5047285;28;19916;-51
2021/08/09 12:13:31;;;;;;;;;;;26.20;94.10;;;;;;5046640;28;19967;-48
2021/08/09 12:16:07;;;;;;;;;;;26.20;94.00;;;;;;5047265;28;19909;-54
2021/08/09 12:18:33;;;;;;;;;;;26.30;94.20;;;;;;5046538;28;19952;-51
2021/08/09 12:21:08;;;;;;;;;;;26.20;94.40;;;;;;5046594;28;19917;-49
2021/08/09 12:23:47;;;;;;;;;;;26.20;94.50;;;;;;5046493;28;19905;-53
2021/08/09 12:26:23;;;;;;;;;;;26.30;94.60;;;;;;5046456;28;19931;-48
2021/08/09 12:28:53;;;;;;;;;;;26.30;94.60;;;;;;5046513;28;19913;-49
2021/08/09 12:31:51;;;;;;;;;;;26.30;94.80;;;;;;5046502;28;19913;-49
2021/08/09 12:34:21;;;;;;;;;;;26.30;94.90;;;;;;5014043;28;19909;-52
2021/08/09 12:36:47;;;;;;;;;;;26.30;95.10;;;;;;5046342;28;19909;-51
2021/08/09 12:39:33;;;;;;;;;;;26.30;95.10;;;;;;5046427;28;19956;-49
2021/08/09 12:42:12;;;;;;;;;;;26.30;95.10;;;;;;5046436;28;19913;-53
2021/08/09 12:44:38;;;;;;;;;;;26.30;95.10;;;;;;5046230;28;19909;-50
2021/08/09 12:47:04;;;;;;;;;;;26.30;95.20;;;;;;5044916;28;19974;-48
2021/08/09 12:49:31;;;;;;;;;;;26.30;95.30;;;;;;5045941;28;19983;-50
2021/08/09 12:51:57;;;;;;;;;;;26.30;95.30;;;;;;5046158;28;19905;-43
2021/08/09 12:54:23;;;;;;;;;;;26.30;95.40;;;;;;5045959;28;19958;-51
2021/08/09 12:56:49;;;;;;;;;;;26.30;95.40;;;;;;5045830;28;19905;-50
2021/08/09 12:59:16;;;;;;;;;;;26.30;95.40;;;;;;5045619;28;19921;-53
2021/08/09 13:01:42;;;;;;;;;;;26.30;95.60;;;;;;5045803;28;19972;-53
2021/08/09 13:04:08;;;;;;;;;;;26.30;95.60;;;;;;5045988;28;20136;-50
2021/08/09 13:06:35;;;;;;;;;;;26.40;95.70;;;;;;5045737;28;19976;-46
2021/08/09 13:09:01;;;;;;;;;;;26.40;95.60;;;;;;5045551;28;19921;-46
2021/08/09 13:11:28;;;;;;;;;;;26.40;95.70;;;;;;5045679;28;19905;-41
2021/08/09 13:13:54;;;;;;;;;;;26.50;95.80;;;;;;5045322;28;20206;-43
2021/08/09 13:16:20;;;;;;;;;;;26.40;96.00;;;;;;5045294;28;19932;-43
2021/08/09 13:18:46;;;;;;;;;;;26.40;96.20;;;;;;5045407;28;19905;-41
2021/08/09 13:21:13;;;;;;;;;;;26.40;96.10;;;;;;5045490;28;20243;-42
2021/08/09 13:23:39;;;;;;;;;;;26.40;96.10;;;;;;5044749;28;20194;-43
2021/08/09 13:26:06;;;;;;;;;;;26.50;96.20;;;;;;5045494;28;19941;-54
2021/08/09 13:28:32;;;;;;;;;;;26.50;96.10;;;;;;5044889;28;20060;-45
2021/08/09 13:30:59;;;;;;;;;;;26.50;96.10;;;;;;5027710;28;19920;-51
2021/08/09 13:33:25;;;;;;;;;;;26.50;95.70;;;;;;5045275;28;19905;-43
2021/08/09 13:35:51;;;;;;;;;;;26.60;95.60;;;;;;5045428;28;20117;-46
2021/08/09 13:38:17;;;;;;;;;;;26.60;95.50;;;;;;5049220;28;20121;-42
2021/08/09 13:40:44;;;;;;;;;;;26.60;95.50;;;;;;5042765;28;19928;-42
2021/08/09 13:43:10;;;;;;;;;;;26.60;95.40;;;;;;5043468;28;19951;-49
2021/08/09 13:45:39;;;;;;;;;;;26.70;95.30;;;;;;5044771;28;19913;-53
2021/08/09 13:48:06;;;;;;;;;;;26.70;95.10;;;;;;5044216;28;19971;-43
2021/08/09 13:50:32;;;;;;;;;;;26.70;95.00;;;;;;5059887;28;19921;-45
2021/08/09 13:52:58;;;;;;;;;;;26.80;94.80;;;;;;5051648;28;19905;-42
2021/08/09 13:55:24;;;;;;;;;;;26.90;94.80;;;;;;5044354;28;20194;-48
2021/08/09 13:57:51;;;;;;;;;;;27.00;94.60;;;;;;5044654;28;19909;-42
2021/08/09 14:00:18;;;;;;;;;;;27.10;94.90;;;;;;5026666;28;19955;-41
2021/08/09 14:02:44;;;;;;;;;;;27.20;94.60;;;;;;5044322;28;19912;-43
2021/08/09 14:05:11;;;;;;;;;;;27.30;94.10;;;;;;5044942;28;19914;-46
2021/08/09 14:07:38;;;;;;;;;;;27.40;94.20;;;;;;5044221;28;20210;-52
2021/08/09 14:10:07;;;;;;;;;;;27.40;94.40;;;;;;5044556;28;19940;-45
2021/08/09 14:12:34;;;;;;;;;;;27.50;94.30;;;;;;5044228;28;19909;-42
2021/08/09 14:15:00;;;;;;;;;;;27.60;94.10;;;;;;5026390;28;19915;-43
2021/08/09 14:17:26;;;;;;;;;;;27.70;94.00;;;;;;5026564;28;19944;-48
2021/08/09 14:19:53;;;;;;;;;;;27.70;93.50;;;;;;5044734;28;20040;-48
2021/08/09 14:22:19;;;;;;;;;;;27.80;93.60;;;;;;5044382;28;20097;-48